Time;durP1;ratioP1;P1;durP2;ratioP2;P2;SDS_P1;SDS_P2;PMS_P1;PMS_P2;Temp;Humidity;BMP_temperature;BMP_pressure;BME280_temperature;BME280_humidity;BME280_pressure;Samples;Min_cycle;Max_cycle;Signal;HPM_P1;HPM_P2
2021/05/27 00:01:29;;;;;;;15.07;5.35;;;435.20;1920.00;;;;;;5013321;28;20116;-81
2021/05/27 00:03:55;;;;;;;13.38;4.93;;;410.50;1894.40;;;;;;5013037;28;20026;-80
2021/05/27 00:06:21;;;;;;;13.82;5.13;;;410.50;1920.00;;;;;;5013154;28;20501;-80
2021/05/27 00:08:46;;;;;;;12.73;5.82;;;410.50;1894.40;;;;;;5026520;28;20045;-80
2021/05/27 00:11:12;;;;;;;17.80;6.15;;;410.50;1920.00;;;;;;5013153;28;20034;-80
2021/05/27 00:13:38;;;;;;;10.32;4.88;;;410.50;1894.40;;;;;;5012624;28;20032;-80
2021/05/27 00:16:04;;;;;;;10.82;4.55;;;435.20;1868.80;;;;;;5012815;28;20371;-80
2021/05/27 00:18:30;;;;;;;12.45;4.97;;;410.50;1894.40;;;;;;5012234;28;20606;-79
2021/05/27 00:20:55;;;;;;;8.27;4.28;;;435.20;1894.40;;;;;;5026356;28;20050;-79
2021/05/27 00:23:21;;;;;;;9.25;4.55;;;435.20;1868.80;;;;;;5024597;28;20614;-80
2021/05/27 00:25:47;;;;;;;10.82;4.50;;;435.20;1868.80;;;;;;5014024;28;20058;-80
2021/05/27 00:28:13;;;;;;;8.32;4.40;;;410.50;1894.40;;;;;;5017857;28;20525;-80
2021/05/27 00:30:38;;;;;;;9.00;3.10;;;410.50;1868.80;;;;;;5024402;28;20025;-80
2021/05/27 00:33:04;;;;;;;11.82;4.43;;;410.50;1868.80;;;;;;5031907;28;20021;-80
2021/05/27 00:35:30;;;;;;;10.05;4.00;;;410.50;1894.40;;;;;;5031919;28;20468;-80
2021/05/27 00:37:56;;;;;;;11.27;3.70;;;410.50;1868.80;;;;;;5031031;28;20037;-80
2021/05/27 00:40:21;;;;;;;11.05;3.28;;;410.50;1868.80;;;;;;5031909;28;20025;-81
2021/05/27 00:42:47;;;;;;;9.15;3.92;;;410.30;1843.20;;;;;;5031807;28;20457;-79
2021/05/27 00:45:16;;;;;;;6.47;3.90;;;410.30;1843.20;;;;;;5064977;28;20040;-79
2021/05/27 00:47:42;;;;;;;5.65;3.17;;;410.40;1843.20;;;;;;5031911;28;20025;-80
2021/05/27 00:50:20;;;;;;;6.03;3.60;;;410.20;1868.80;;;;;;5063544;28;20087;-80
2021/05/27 00:52:56;;;;;;;8.05;3.95;;;410.20;1894.40;;;;;;5014911;28;20055;-80
2021/05/27 00:55:24;;;;;;;8.75;4.80;;;410.00;1894.40;;;;;;5032951;28;20546;-80
2021/05/27 00:57:50;;;;;;;7.55;4.22;;;410.00;1868.80;;;;;;5032617;28;20052;-80
2021/05/27 01:00:18;;;;;;;10.70;5.38;;;410.10;1817.60;;;;;;5030010;28;20025;-80
2021/05/27 01:02:44;;;;;;;9.32;4.32;;;410.10;1817.60;;;;;;5032604;28;20030;-80
2021/05/27 01:05:12;;;;;;;9.38;4.25;;;410.20;1817.60;;;;;;5032496;28;20021;-80
2021/05/27 01:07:38;;;;;;;8.15;4.45;;;410.20;1792.00;;;;;;5031472;28;20171;-80
2021/05/27 01:10:09;;;;;;;14.82;5.75;;;410.20;1817.60;;;;;;5050516;28;20026;-79
2021/05/27 01:12:36;;;;;;;11.70;5.38;;;410.20;1817.60;;;;;;5032867;28;20475;-79
2021/05/27 01:17:46;;;;;;;8.48;3.80;;;410.20;1792.00;;;;;;5032537;28;20044;-79
2021/05/27 01:20:13;;;;;;;10.90;4.63;;;410.20;1792.00;;;;;;5031257;28;20383;-79
2021/05/27 01:22:39;;;;;;;8.73;4.70;;;410.00;1792.00;;;;;;5064562;28;20104;-79
2021/05/27 01:25:07;;;;;;;7.88;4.38;;;410.10;1792.00;;;;;;5031359;28;20605;-79
2021/05/27 01:27:33;;;;;;;13.10;4.10;;;410.00;1792.00;;;;;;5031013;28;20040;-79
2021/05/27 01:30:00;;;;;;;8.40;3.90;;;410.00;1792.00;;;;;;5051500;28;20052;-79
2021/05/27 01:32:25;;;;;;;8.15;5.22;;;409.90;1817.60;;;;;;5031135;28;20156;-79
2021/05/27 01:34:51;;;;;;;7.13;4.13;;;410.00;1792.00;;;;;;5064681;28;20104;-79
2021/05/27 01:37:17;;;;;;;10.15;4.43;;;410.00;1792.00;;;;;;5030855;28;20033;-79
2021/05/27 01:39:46;;;;;;;7.82;4.05;;;410.00;1792.00;;;;;;5032512;28;20181;-79
2021/05/27 01:42:13;;;;;;;7.00;4.18;;;410.10;1792.00;;;;;;5031281;28;20025;-79
2021/05/27 01:44:40;;;;;;;9.63;4.80;;;410.00;1792.00;;;;;;5031287;28;20022;-79
2021/05/27 01:47:06;;;;;;;9.60;4.55;;;410.00;1817.60;;;;;;5026805;28;20021;-79
2021/05/27 01:49:32;;;;;;;12.13;4.75;;;410.00;1817.60;;;;;;5015926;28;20037;-79
2021/05/27 01:51:58;;;;;;;10.23;4.78;;;409.90;1817.60;;;;;;5036222;28;20017;-79
2021/05/27 01:54:24;;;;;;;5.65;3.75;;;409.70;1843.20;;;;;;5026236;28;20033;-80
2021/05/27 01:56:50;;;;;;;9.20;4.63;;;409.60;1868.80;;;;;;5036035;28;20042;-79
2021/05/27 01:59:16;;;;;;;10.52;5.07;;;384.90;1868.80;;;;;;5034722;28;20360;-79
2021/05/27 02:01:42;;;;;;;6.88;4.55;;;384.80;1894.40;;;;;;5034905;28;20036;-79
2021/05/27 02:04:09;;;;;;;11.30;4.13;;;384.70;1894.40;;;;;;5034586;28;20036;-79
2021/05/27 02:06:34;;;;;;;10.93;5.13;;;384.60;1920.00;;;;;;5034698;28;20026;-80
2021/05/27 02:09:12;;;;;;;6.97;4.45;;;384.60;1894.40;;;;;;5031853;28;20391;-85
2021/05/27 02:11:47;;;;;;;7.10;4.65;;;384.60;1920.00;;;;;;5035884;28;20064;-85
2021/05/27 02:14:14;;;;;;;8.75;4.93;;;384.40;1945.60;;;;;;5023120;28;20028;-78
2021/05/27 02:16:42;;;;;;;9.43;5.07;;;384.60;1945.60;;;;;;5035834;28;20029;-78
2021/05/27 02:19:09;;;;;;;8.20;4.63;;;384.30;1996.80;;;;;;5031819;28;20040;-84
2021/05/27 02:21:36;;;;;;;12.35;5.55;;;384.30;1996.80;;;;;;5026458;28;20079;-79
2021/05/27 02:24:04;;;;;;;8.98;5.10;;;384.50;1971.20;;;;;;5034461;28;20471;-79
2021/05/27 02:26:30;;;;;;;11.23;4.53;;;384.60;1945.60;;;;;;5034782;28;20032;-79
2021/05/27 02:28:56;;;;;;;12.38;5.07;;;384.70;1945.60;;;;;;5021126;28;20062;-79
2021/05/27 02:31:23;;;;;;;9.73;4.88;;;384.50;1971.20;;;;;;5066190;28;20503;-85
2021/05/27 02:33:50;;;;;;;9.50;5.32;;;384.40;2022.40;;;;;;5034275;28;20021;-82
2021/05/27 02:36:16;;;;;;;9.63;5.72;;;384.40;1996.80;;;;;;5034301;28;20034;-78
2021/05/27 02:38:41;;;;;;;7.07;4.70;;;384.60;1996.80;;;;;;5034029;28;20040;-79
2021/05/27 02:41:08;;;;;;;13.52;5.13;;;384.60;1996.80;;;;;;5033954;28;20075;-78
2021/05/27 02:43:34;;;;;;;13.10;6.30;;;384.70;1971.20;;;;;;5021039;28;20141;-79
2021/05/27 02:46:01;;;;;;;11.07;6.00;;;384.70;1996.80;;;;;;5034350;28;20036;-79
2021/05/27 02:48:27;;;;;;;15.07;6.72;;;384.80;1996.80;;;;;;5033866;28;20479;-79
2021/05/27 02:50:54;;;;;;;20.33;7.57;;;384.90;1996.80;;;;;;5034114;28;20111;-79
2021/05/27 02:53:19;;;;;;;16.88;7.10;;;409.60;1996.80;;;;;;5019918;28;20067;-79
2021/05/27 02:55:45;;;;;;;18.20;7.18;;;384.80;1996.80;;;;;;5033854;28;20049;-79
2021/05/27 02:58:11;;;;;;;13.88;7.65;;;384.80;1971.20;;;;;;5033714;28;20045;-79
2021/05/27 03:00:37;;;;;;;19.83;7.60;;;384.60;1971.20;;;;;;5032906;28;20045;-80
2021/05/27 03:03:03;;;;;;;13.57;7.57;;;384.60;2022.40;;;;;;5033817;28;20573;-79
2021/05/27 03:05:29;;;;;;;26.58;8.63;;;384.70;1996.80;;;;;;5066964;28;20036;-83
2021/05/27 03:07:55;;;;;;;14.35;7.00;;;384.90;1971.20;;;;;;5033777;28;20021;-78
2021/05/27 03:10:20;;;;;;;14.38;6.90;;;384.90;1945.60;;;;;;5019999;28;20028;-83
2021/05/27 03:12:46;;;;;;;21.50;7.40;;;409.60;1971.20;;;;;;5034531;28;20394;-79
2021/05/27 03:15:12;;;;;;;18.30;7.47;;;409.70;1971.20;;;;;;5033602;28;20036;-79
2021/05/27 03:17:38;;;;;;;11.57;7.00;;;409.70;1996.80;;;;;;5020636;28;20044;-79
2021/05/27 03:20:05;;;;;;;9.85;5.85;;;409.80;1996.80;;;;;;5023971;28;20386;-78
2021/05/27 03:22:31;;;;;;;14.10;7.22;;;409.90;1971.20;;;;;;5018786;28;20032;-78
2021/05/27 03:24:57;;;;;;;12.23;6.25;;;409.90;1971.20;;;;;;5033650;28;20374;-78
2021/05/27 03:27:23;;;;;;;17.00;6.75;;;409.80;2022.40;;;;;;5033016;28;20029;-79
2021/05/27 03:29:48;;;;;;;17.15;6.82;;;409.70;2048.00;;;;;;5019364;28;20145;-82
2021/05/27 03:32:14;;;;;;;14.05;7.07;;;409.60;2073.60;;;;;;5033216;28;20052;-78
2021/05/27 03:34:40;;;;;;;11.60;7.03;;;384.70;2073.60;;;;;;5033079;28;20036;-83
2021/05/27 03:37:06;;;;;;;8.18;5.60;;;384.70;2124.80;;;;;;5060753;28;20029;-84
2021/05/27 03:39:32;;;;;;;8.43;6.07;;;384.60;2150.40;;;;;;5061796;28;20419;-78
2021/05/27 03:41:58;;;;;;;10.02;5.95;;;384.60;2124.80;;;;;;5033247;28;20025;-83
2021/05/27 03:44:24;;;;;;;11.48;5.97;;;384.70;2124.80;;;;;;5034120;28;20030;-79
2021/05/27 03:46:50;;;;;;;13.45;6.20;;;384.70;2099.20;;;;;;5032809;28;20034;-83
2021/05/27 03:49:15;;;;;;;11.38;5.70;;;384.60;2099.20;;;;;;5032626;28;20083;-79
2021/05/27 03:51:41;;;;;;;10.50;5.75;;;384.60;2124.80;;;;;;5032816;28;20021;-79
2021/05/27 03:54:07;;;;;;;7.45;4.78;;;409.60;2073.60;;;;;;5033967;28;20021;-82
2021/05/27 03:56:33;;;;;;;12.98;5.57;;;409.70;2022.40;;;;;;5020707;28;20039;-78
2021/05/27 04:01:43;;;;;;;11.10;5.15;;;409.60;2022.40;;;;;;5033936;28;20080;-82
2021/05/27 04:07:12;;;;;;;8.25;4.47;;;410.00;1894.40;;;;;;5034055;28;20566;-79
2021/05/27 04:09:40;;;;;;;10.77;4.13;;;410.20;1868.80;;;;;;5032532;28;20032;-79
2021/05/27 04:17:37;;;;;;;8.05;4.20;;;410.20;1945.60;;;;;;5020672;28;20060;-81
2021/05/27 04:20:05;;;;;;;7.28;3.83;;;410.30;1996.80;;;;;;5032402;28;20480;-78
2021/05/27 04:22:31;;;;;;;16.52;4.85;;;410.30;1971.20;;;;;;5018158;28;20080;-82
2021/05/27 04:24:57;;;;;;;6.60;4.07;;;410.50;1945.60;;;;;;5032151;28;20026;-79
2021/05/27 04:27:22;;;;;;;9.75;4.32;;;435.20;1868.80;;;;;;5033068;28;20531;-79
2021/05/27 04:29:51;;;;;;;10.07;4.22;;;435.20;1894.40;;;;;;5017879;28;20042;-78
2021/05/27 04:33:04;;;;;;;8.98;4.43;;;410.50;1868.80;;;;;;5032205;28;20025;-79
2021/05/27 04:35:03;;;;;;;8.63;3.97;;;435.20;1894.40;;;;;;5022245;28;20041;-83
2021/05/27 04:37:29;;;;;;;9.15;4.25;;;435.20;1894.40;;;;;;5014310;28;20095;-79
2021/05/27 04:39:54;;;;;;;10.70;4.50;;;435.20;1894.40;;;;;;5014856;28;20037;-78
2021/05/27 04:42:20;;;;;;;7.30;4.45;;;435.20;1894.40;;;;;;5015811;28;20028;-83
2021/05/27 04:44:46;;;;;;;10.48;4.25;;;435.20;1868.80;;;;;;5015195;28;20083;-79
2021/05/27 04:47:11;;;;;;;11.43;4.85;;;410.50;1945.60;;;;;;5015390;28;20041;-83
2021/05/27 04:49:37;;;;;;;8.77;4.82;;;410.40;1971.20;;;;;;5032904;28;20033;-79
2021/05/27 04:52:03;;;;;;;10.77;4.90;;;410.30;1971.20;;;;;;5051494;28;20105;-78
2021/05/27 04:54:29;;;;;;;9.80;4.32;;;410.30;1996.80;;;;;;5017503;28;20042;-79
2021/05/27 04:56:54;;;;;;;9.63;5.80;;;410.50;1920.00;;;;;;5032604;28;20032;-78
2021/05/27 04:59:20;;;;;;;14.68;7.00;;;435.20;1868.80;;;;;;5019613;28;20033;-82
2021/05/27 05:01:46;;;;;;;11.30;5.65;;;435.20;1920.00;;;;;;5015086;28;20030;-82
2021/05/27 05:04:12;;;;;;;15.23;5.25;;;435.30;1868.80;;;;;;5032969;28;20116;-82
2021/05/27 05:06:38;;;;;;;7.90;4.38;;;435.50;1894.40;;;;;;5014884;28;20027;-79
2021/05/27 05:09:04;;;;;;;8.10;3.80;;;435.60;1868.80;;;;;;5015146;28;20072;-79
2021/05/27 05:11:29;;;;;;;6.22;4.15;;;435.40;1868.80;;;;;;5014716;28;20479;-79
2021/05/27 05:13:55;;;;;;;6.38;3.92;;;435.40;1843.20;;;;;;5032385;28;20442;-78
2021/05/27 05:16:21;;;;;;;6.70;3.47;;;435.60;1868.80;;;;;;5038333;28;20465;-79
2021/05/27 05:18:47;;;;;;;8.93;3.40;;;435.60;1817.60;;;;;;5018098;28;20064;-84
2021/05/27 05:21:12;;;;;;;6.50;3.10;;;435.90;1792.00;;;;;;5015884;28;20088;-78
2021/05/27 05:23:39;;;;;;;8.93;3.80;;;435.80;1843.20;;;;;;5013679;28;20403;-78
2021/05/27 05:26:05;;;;;;;7.78;3.75;;;435.90;1843.20;;;;;;5014406;28;20025;-79
2021/05/27 05:28:31;;;;;;;7.90;4.05;;;435.80;1843.20;;;;;;5031603;28;20525;-79
2021/05/27 05:30:56;;;;;;;5.53;3.67;;;435.80;1868.80;;;;;;5022637;28;20075;-78
2021/05/27 05:33:22;;;;;;;6.80;3.63;;;436.00;1894.40;;;;;;5022089;28;20033;-79
2021/05/27 05:35:48;;;;;;;15.77;4.35;;;460.80;1894.40;;;;;;5047466;28;20017;-78
2021/05/27 05:38:14;;;;;;;6.53;3.75;;;436.10;1868.80;;;;;;5027789;28;20049;-78
2021/05/27 05:40:39;;;;;;;9.55;3.92;;;436.10;1843.20;;;;;;5022598;28;20112;-78
2021/05/27 05:43:05;;;;;;;7.57;3.17;;;460.80;1868.80;;;;;;5027707;28;20040;-77
2021/05/27 05:45:31;;;;;;;4.45;2.67;;;460.90;1817.60;;;;;;5029697;28;20064;-78
2021/05/27 05:47:59;;;;;;;7.88;3.38;;;461.00;1817.60;;;;;;5031722;28;20031;-81
2021/05/27 05:53:11;;;;;;;8.20;3.65;;;461.40;1792.00;;;;;;5032416;28;20036;-78
2021/05/27 05:55:37;;;;;;;5.78;3.83;;;461.50;1766.40;;;;;;5014168;28;20471;-81
2021/05/27 05:58:04;;;;;;;5.97;2.80;;;461.40;1740.80;;;;;;5014043;28;20261;-81
2021/05/27 06:00:30;;;;;;;8.32;3.22;;;461.50;1766.40;;;;;;5010417;28;20040;-78
2021/05/27 06:02:56;;;;;;;8.48;3.15;;;486.40;1766.40;;;;;;5014498;28;20104;-80
2021/05/27 06:05:22;;;;;;;7.63;2.70;;;486.40;1766.40;;;;;;5014434;28;20052;-79
2021/05/27 06:07:48;;;;;;;6.95;3.40;;;486.60;1817.60;;;;;;5031891;28;20022;-78
2021/05/27 06:10:13;;;;;;;5.05;2.53;;;486.70;1689.60;;;;;;5016951;28;20054;-80
2021/05/27 06:12:39;;;;;;;3.17;2.08;;;486.80;1638.40;;;;;;5043413;28;20032;-79
2021/05/27 06:15:09;;;;;;;3.95;2.30;;;486.90;1612.80;;;;;;5013909;28;20091;-80
2021/05/27 06:17:35;;;;;;;4.05;2.17;;;487.00;1612.80;;;;;;5013311;28;20561;-78
2021/05/27 06:20:01;;;;;;;5.53;2.72;;;487.10;1612.80;;;;;;5031495;28;20017;-80
2021/05/27 06:22:26;;;;;;;7.07;2.17;;;487.30;1536.00;;;;;;5031998;28;20029;-80
2021/05/27 06:24:52;;;;;;;4.10;1.92;;;487.30;1484.80;;;;;;5038946;28;20040;-80
2021/05/27 06:27:18;;;;;;;5.88;2.22;;;512.00;1459.20;;;;;;5031098;28;20025;-78
2021/05/27 06:29:44;;;;;;;3.47;2.17;;;512.20;1459.20;;;;;;5013098;28;20135;-78
2021/05/27 06:32:11;;;;;;;4.43;2.00;;;512.30;1459.20;;;;;;5013555;28;20021;-79
2021/05/27 06:34:37;;;;;;;5.00;2.20;;;512.30;1484.80;;;;;;5013355;28;20491;-77
2021/05/27 06:37:03;;;;;;;3.85;1.90;;;512.40;1484.80;;;;;;5040219;28;20030;-78
2021/05/27 06:39:28;;;;;;;4.03;2.33;;;512.60;1484.80;;;;;;5015844;28;20037;-77
2021/05/27 06:41:55;;;;;;;5.55;2.35;;;512.70;1459.20;;;;;;5017230;28;20025;-78
2021/05/27 06:44:23;;;;;;;5.90;2.33;;;512.80;1433.60;;;;;;5034448;28;20022;-83
2021/05/27 06:46:48;;;;;;;4.72;2.20;;;512.90;1433.60;;;;;;5034805;28;20022;-78
2021/05/27 06:49:14;;;;;;;9.82;2.25;;;537.70;1433.60;;;;;;5017098;28;20028;-82
2021/05/27 06:51:43;;;;;;;6.45;2.17;;;537.80;1382.40;;;;;;5016972;28;20030;-84
2021/05/27 06:54:09;;;;;;;5.28;2.15;;;537.80;1433.60;;;;;;5034799;28;20018;-78
2021/05/27 06:56:34;;;;;;;6.75;2.25;;;538.00;1433.60;;;;;;5034888;28;20025;-77
2021/05/27 06:59:00;;;;;;;14.95;2.35;;;538.10;1433.60;;;;;;5016995;28;20447;-84
2021/05/27 07:01:26;;;;;;;6.68;1.80;;;538.20;1331.20;;;;;;5034692;28;20022;-79
2021/05/27 07:03:52;;;;;;;5.20;2.15;;;538.30;1331.20;;;;;;5017418;28;20021;-78
2021/05/27 07:06:17;;;;;;;5.43;1.95;;;538.40;1280.00;;;;;;5017138;28;20581;-78
2021/05/27 07:08:43;;;;;;;6.75;1.50;;;538.50;1280.00;;;;;;5034851;28;20100;-78
2021/05/27 07:11:09;;;;;;;3.55;1.63;;;563.20;1254.40;;;;;;5024231;28;20026;-81
2021/05/27 07:13:35;;;;;;;8.90;1.98;;;563.30;1280.00;;;;;;5023084;28;20487;-77
2021/05/27 07:16:00;;;;;;;5.57;1.88;;;563.50;1305.60;;;;;;5016812;28;20061;-84
2021/05/27 07:18:26;;;;;;;5.10;1.75;;;563.60;1280.00;;;;;;5034336;28;20120;-78
2021/05/27 07:20:52;;;;;;;5.22;1.38;;;563.60;1254.40;;;;;;5016707;28;20056;-84
2021/05/27 07:23:18;;;;;;;2.97;1.55;;;563.70;1152.00;;;;;;5016750;28;20125;-79
2021/05/27 07:25:44;;;;;;;3.53;1.80;;;563.70;1177.60;;;;;;5024406;28;20535;-79
2021/05/27 07:28:10;;;;;;;3.38;1.63;;;564.00;1203.20;;;;;;5023608;28;20057;-82
2021/05/27 07:30:36;;;;;;;4.53;1.73;;;564.00;1228.80;;;;;;5025445;28;20091;-79
2021/05/27 07:33:02;;;;;;;6.53;1.48;;;564.10;1203.20;;;;;;5032930;28;20017;-79
2021/05/27 07:35:29;;;;;;;6.82;1.70;;;563.90;1152.00;;;;;;5034189;28;20145;-78
2021/05/27 07:37:57;;;;;;;4.15;1.40;;;588.80;1126.40;;;;;;5032870;28;20033;-79
2021/05/27 07:40:24;;;;;;;4.60;1.40;;;588.80;1126.40;;;;;;5032713;28;20586;-84
2021/05/27 07:42:49;;;;;;;4.25;1.70;;;589.00;1152.00;;;;;;5032861;28;20036;-78
2021/05/27 07:45:16;;;;;;;4.32;1.55;;;589.00;1100.80;;;;;;5032476;28;20033;-78
2021/05/27 07:47:43;;;;;;;7.78;1.60;;;589.10;1049.60;;;;;;5033882;28;20044;-77
2021/05/27 07:50:09;;;;;;;3.85;1.50;;;589.20;1075.20;;;;;;5034028;28;20115;-83
2021/05/27 07:52:35;;;;;;;3.78;1.30;;;589.20;1100.80;;;;;;5059051;28;20026;-81
2021/05/27 07:55:01;;;;;;;3.40;1.52;;;589.30;1100.80;;;;;;5016400;28;20120;-85
2021/05/27 07:57:26;;;;;;;6.90;1.42;;;589.30;1075.20;;;;;;5027529;28;20140;-82
2021/05/27 07:59:53;;;;;;;2.85;1.58;;;589.40;1100.80;;;;;;5016529;28;20384;-85
2021/05/27 08:02:19;;;;;;;3.65;1.63;;;589.50;1075.20;;;;;;5029893;28;20084;-82
2021/05/27 08:04:45;;;;;;;5.25;2.35;;;589.50;1049.60;;;;;;5015742;28;20025;-79
2021/05/27 08:07:11;;;;;;;6.53;1.55;;;589.60;1126.40;;;;;;5049160;28;20129;-79
2021/05/27 08:09:37;;;;;;;3.80;1.48;;;589.70;1075.20;;;;;;5015943;28;20028;-80
2021/05/27 08:12:04;;;;;;;2.97;1.40;;;589.70;1049.60;;;;;;5015309;28;20025;-80
2021/05/27 08:14:30;;;;;;;2.47;1.42;;;589.70;1049.60;;;;;;5020495;28;20042;-79
2021/05/27 08:16:56;;;;;;;4.28;1.77;;;614.40;1049.60;;;;;;5033561;28;20029;-82
2021/05/27 08:19:21;;;;;;;3.45;1.45;;;614.40;1024.00;;;;;;5012758;28;20053;-82
2021/05/27 08:21:47;;;;;;;4.18;1.58;;;614.50;1024.00;;;;;;5027749;28;20075;-81
2021/05/27 08:24:13;;;;;;;5.50;1.17;;;614.60;998.40;;;;;;5016558;28;20120;-78
2021/05/27 08:26:38;;;;;;;4.30;1.75;;;614.60;998.40;;;;;;5015258;28;20021;-77
2021/05/27 08:29:04;;;;;;;7.00;1.50;;;614.60;998.40;;;;;;5032628;28;20125;-79
2021/05/27 08:31:31;;;;;;;2.72;1.60;;;614.60;1024.00;;;;;;5032854;28;20053;-85
2021/05/27 08:33:57;;;;;;;3.40;1.45;;;614.60;998.40;;;;;;5033379;28;20033;-86
2021/05/27 08:36:23;;;;;;;4.05;1.35;;;614.70;1024.00;;;;;;5013218;28;20026;-81
2021/05/27 08:38:49;;;;;;;4.57;1.60;;;614.80;998.40;;;;;;5024400;28;20039;-83
2021/05/27 08:41:19;;;;;;;4.40;1.42;;;614.80;1024.00;;;;;;5015696;28;20064;-84
2021/05/27 08:43:47;;;;;;;3.67;1.52;;;614.80;947.20;;;;;;5017234;28;20025;-80
2021/05/27 08:46:13;;;;;;;6.35;1.30;;;614.90;1049.60;;;;;;5015666;28;20604;-83
2021/05/27 08:48:41;;;;;;;3.55;1.50;;;614.90;947.20;;;;;;5014521;28;20025;-82
2021/05/27 08:51:08;;;;;;;3.40;1.38;;;614.90;947.20;;;;;;5016886;28;20021;-85
2021/05/27 08:53:33;;;;;;;1.95;1.13;;;615.00;998.40;;;;;;5016414;28;20031;-84
2021/05/27 08:55:59;;;;;;;3.10;1.38;;;615.00;972.80;;;;;;5015430;28;20021;-83
2021/05/27 08:58:25;;;;;;;3.42;1.33;;;615.10;947.20;;;;;;5017624;28;20045;-80
2021/05/27 09:00:51;;;;;;;5.80;1.52;;;614.80;972.80;;;;;;5015478;28;20022;-85
2021/05/27 09:03:18;;;;;;;2.58;1.45;;;615.10;972.80;;;;;;5031975;28;20467;-83
2021/05/27 09:05:45;;;;;;;2.40;1.33;;;615.20;921.60;;;;;;5033222;28;20017;-83
2021/05/27 09:08:30;;;;;;;3.10;1.50;;;615.30;972.80;;;;;;5017602;28;20491;-87
2021/05/27 09:11:04;;;;;;;2.33;1.50;;;640.00;972.80;;;;;;5012588;28;20017;-86
2021/05/27 09:13:30;;;;;;;2.65;1.20;;;640.10;998.40;;;;;;5016524;28;20021;-89
2021/05/27 09:16:09;;;;;;;3.75;1.33;;;640.10;921.60;;;;;;5020907;28;20013;-88
2021/05/27 09:18:40;;;;;;;6.93;1.85;;;640.20;972.80;;;;;;5033050;28;20064;-85
2021/05/27 09:21:11;;;;;;;7.35;3.78;;;640.20;921.60;;;;;;5016141;28;20030;-86
2021/05/27 09:23:48;;;;;;;2.20;1.30;;;640.20;921.60;;;;;;5015429;28;20026;-88
2021/05/27 09:26:15;;;;;;;4.05;1.40;;;640.40;947.20;;;;;;5015918;28;20411;-85
2021/05/27 09:28:44;;;;;;;3.05;1.60;;;640.50;921.60;;;;;;5021600;28;20049;-88
2021/05/27 09:31:15;;;;;;;2.13;1.25;;;640.50;870.40;;;;;;5032948;28;20106;-87
2021/05/27 09:33:44;;;;;;;3.13;1.40;;;640.60;844.80;;;;;;5031680;28;20410;-85
2021/05/27 09:36:16;;;;;;;18.88;2.75;;;640.50;844.80;;;;;;5031542;28;20030;-82
2021/05/27 09:38:47;;;;;;;4.85;2.30;;;640.90;844.80;;;;;;5030897;28;20522;-80
2021/05/27 09:41:20;;;;;;;17.50;6.63;;;640.90;819.20;;;;;;5030665;28;20030;-82
2021/05/27 09:43:50;;;;;;;2.78;1.15;;;665.70;947.20;;;;;;5026677;28;20132;-81
2021/05/27 09:46:17;;;;;;;5.97;3.38;;;665.90;870.40;;;;;;5015039;28;20032;-80
2021/05/27 09:48:46;;;;;;;5.88;3.38;;;666.10;870.40;;;;;;5030740;28;20487;-85
2021/05/27 09:51:25;;;;;;;2.65;1.30;;;666.10;870.40;;;;;;5031125;28;20025;-83
2021/05/27 09:53:53;;;;;;;4.43;1.77;;;666.30;870.40;;;;;;5035162;28;20480;-81
2021/05/27 09:56:38;;;;;;;5.97;1.65;;;666.00;947.20;;;;;;5024298;28;20038;-80
2021/05/27 09:59:04;;;;;;;2.92;1.50;;;665.90;870.40;;;;;;5030590;28;20037;-81
2021/05/27 10:01:30;;;;;;;10.55;3.30;;;665.90;844.80;;;;;;5030844;28;20047;-83
2021/05/27 10:04:14;;;;;;;6.78;2.00;;;665.90;870.40;;;;;;5017395;28;20491;-80
2021/05/27 10:06:40;;;;;;;7.65;1.58;;;665.90;870.40;;;;;;5031132;28;20026;-80
2021/05/27 10:09:08;;;;;;;4.57;1.38;;;665.80;896.00;;;;;;5032053;28;20060;-81
2021/05/27 10:11:35;;;;;;;3.97;1.73;;;666.00;921.60;;;;;;5033564;28;20064;-81
2021/05/27 10:14:02;;;;;;;2.70;1.33;;;666.00;844.80;;;;;;5020786;28;20017;-85
2021/05/27 10:16:27;;;;;;;4.82;1.40;;;665.90;870.40;;;;;;5026670;28;20041;-81
2021/05/27 10:18:55;;;;;;;3.72;1.40;;;666.10;819.20;;;;;;5032263;28;20030;-80
2021/05/27 10:21:23;;;;;;;3.10;1.48;;;666.00;819.20;;;;;;5034752;28;20018;-81
2021/05/27 10:23:50;;;;;;;4.47;1.50;;;666.20;896.00;;;;;;5035709;28;20175;-84
2021/05/27 10:26:16;;;;;;;2.42;1.42;;;666.10;870.40;;;;;;5029711;28;20471;-82
2021/05/27 10:28:47;;;;;;;4.40;1.35;;;666.30;896.00;;;;;;5025104;28;20135;-84
2021/05/27 10:31:14;;;;;;;7.53;4.43;;;666.30;844.80;;;;;;5034679;28;20041;-85
2021/05/27 10:33:42;;;;;;;5.00;3.15;;;666.50;896.00;;;;;;5028864;28;20367;-84
2021/05/27 10:36:09;;;;;;;4.68;1.25;;;691.20;844.80;;;;;;5035450;28;20083;-84
2021/05/27 10:38:44;;;;;;;4.05;1.25;;;666.50;844.80;;;;;;5030289;28;20128;-84
2021/05/27 10:41:10;;;;;;;4.45;1.20;;;666.30;896.00;;;;;;5029331;28;20021;-84
2021/05/27 10:43:36;;;;;;;2.88;1.40;;;666.40;921.60;;;;;;5035424;28;20481;-83
2021/05/27 10:46:07;;;;;;;2.15;1.25;;;666.50;896.00;;;;;;5034506;28;20471;-83
2021/05/27 10:48:46;;;;;;;2.47;1.20;;;666.50;819.20;;;;;;5032490;28;20021;-86
2021/05/27 10:53:56;;;;;;;1.90;1.10;;;666.40;896.00;;;;;;5033460;28;20048;-81
2021/05/27 10:56:34;;;;;;;2.50;1.30;;;666.50;819.20;;;;;;5023876;28;20022;-83
2021/05/27 10:59:00;;;;;;;3.95;1.35;;;666.10;947.20;;;;;;5019199;28;20038;-83
2021/05/27 11:01:46;;;;;;;6.53;1.45;;;665.90;896.00;;;;;;5023649;28;20022;-84
2021/05/27 11:04:35;;;;;;;2.65;1.30;;;665.70;896.00;;;;;;5006121;28;20518;-84
2021/05/27 11:07:13;;;;;;;7.43;1.75;;;665.80;921.60;;;;;;5019198;28;20032;-79
2021/05/27 11:09:39;;;;;;;3.70;1.50;;;665.90;921.60;;;;;;5021758;28;20056;-84
2021/05/27 11:12:09;;;;;;;4.20;1.10;;;665.90;972.80;;;;;;5025530;28;20376;-84
2021/05/27 11:14:38;;;;;;;2.25;1.20;;;665.80;870.40;;;;;;5033654;28;20018;-83
2021/05/27 11:17:08;;;;;;;3.42;1.33;;;665.90;921.60;;;;;;5033807;28;20021;-83
2021/05/27 11:19:57;;;;;;;4.35;1.67;;;666.20;870.40;;;;;;5024002;28;20026;-83
2021/05/27 11:25:16;;;;;;;5.50;1.48;;;666.10;870.40;;;;;;5031563;28;20076;-83
2021/05/27 11:27:53;;;;;;;4.18;1.55;;;666.00;921.60;;;;;;5018774;28;20029;-90
2021/05/27 11:30:38;;;;;;;6.35;1.52;;;666.30;921.60;;;;;;5006354;28;20049;-84
2021/05/27 11:33:31;;;;;;;5.32;1.45;;;666.40;896.00;;;;;;5017115;28;20049;-84
2021/05/27 11:36:00;;;;;;;3.60;1.27;;;666.10;921.60;;;;;;5017416;28;20079;-85
2021/05/27 11:38:35;;;;;;;3.70;1.48;;;665.90;896.00;;;;;;5062342;28;20510;-84
2021/05/27 11:41:06;;;;;;;5.03;1.42;;;665.90;921.60;;;;;;5023812;28;20543;-81
2021/05/27 11:43:39;;;;;;;3.13;1.58;;;665.60;896.00;;;;;;5011308;28;20026;-85
2021/05/27 11:46:08;;;;;;;1.45;1.08;;;665.80;921.60;;;;;;5018005;28;20126;-85
2021/05/27 11:48:40;;;;;;;5.72;1.60;;;665.80;870.40;;;;;;5016827;28;20052;-85
2021/05/27 11:51:16;;;;;;;4.82;1.45;;;665.70;870.40;;;;;;5017085;28;20101;-86
2021/05/27 11:53:54;;;;;;;7.22;1.83;;;665.60;896.00;;;;;;5028164;28;20021;-88
2021/05/27 11:56:38;;;;;;;4.80;1.35;;;640.90;921.60;;;;;;5023604;28;20018;-86
2021/05/27 11:59:05;;;;;;;5.32;1.33;;;640.80;844.80;;;;;;5016804;28;20037;-85
2021/05/27 12:01:31;;;;;;;5.93;2.00;;;640.70;921.60;;;;;;5022061;28;20026;-86
2021/05/27 12:04:12;;;;;;;2.70;1.40;;;640.60;870.40;;;;;;5049793;28;20021;-85
2021/05/27 12:07:02;;;;;;;4.25;2.05;;;640.50;896.00;;;;;;5036290;28;20022;-85
2021/05/27 12:09:37;;;;;;;5.90;1.65;;;640.40;921.60;;;;;;5030432;28;20029;-84
2021/05/27 12:12:27;;;;;;;6.07;1.83;;;640.30;921.60;;;;;;5014681;28;20396;-82
2021/05/27 12:14:58;;;;;;;7.00;1.85;;;640.40;896.00;;;;;;5057420;28;20022;-85
2021/05/27 12:17:28;;;;;;;7.03;1.75;;;640.40;870.40;;;;;;5033164;28;20498;-85
2021/05/27 12:20:03;;;;;;;2.28;1.10;;;640.40;896.00;;;;;;5018436;28;20059;-84
2021/05/27 12:22:44;;;;;;;;;;;640.30;896.00;;;;;;5026140;28;20025;-84
2021/05/27 12:25:11;;;;;;;3.42;1.33;;;640.30;896.00;;;;;;5031718;28;19906;-84
2021/05/27 12:27:51;;;;;;;6.60;1.80;;;640.20;870.40;;;;;;5018673;28;20043;-84
2021/05/27 12:30:32;;;;;;;5.10;2.00;;;640.20;972.80;;;;;;5033106;28;20052;-86
2021/05/27 12:32:59;;;;;;;4.97;1.60;;;640.20;896.00;;;;;;5013824;28;20113;-85
2021/05/27 12:35:25;;;;;;;4.13;1.60;;;640.20;870.40;;;;;;5014213;28;20479;-84
2021/05/27 12:37:54;;;;;;;4.95;1.52;;;640.10;921.60;;;;;;5015567;28;20052;-85
2021/05/27 12:40:36;;;;;;;3.50;1.88;;;640.20;896.00;;;;;;5015153;28;20056;-85
2021/05/27 12:43:24;;;;;;;4.47;1.35;;;640.20;921.60;;;;;;5015398;28;20068;-85
2021/05/27 12:45:51;;;;;;;2.35;1.30;;;640.20;870.40;;;;;;5014175;28;20029;-84